HKE131 RCKH-VHHH
Flight info
| Callsign | HKE131 |
|---|---|
| Flight time | 1h 4m |
| Altitude | 34000 |
| Route | PARAS T7 WP521 G581 ELATO V522 ABBEY |
| Aircraft | A20N/M-SDE2E3FGHIRWXY/LB1 |
Departure
| Time | 2026-04-24 11:28 |
|---|---|
| Airport | Kaohsiung International Airport (RCKH) |
Arrival
| Time | 2026-04-24 12:33 |
|---|---|
| Airport | Hong Kong International Airport (VHHH) |
| Time | Latitude | Longitude | Altitude | Speed | Heading |
|---|---|---|---|---|---|
| 2026-04-24 11:04 | 22.57218 | 120.33966 | 38 ft | 0 kts | 271° |
| 2026-04-24 11:14 | 22.57218 | 120.33968 | 38 ft | 2 kts | 271° |
| 2026-04-24 11:14 | 22.57218 | 120.33983 | 38 ft | 2 kts | 271° |
| 2026-04-24 11:14 | 22.57218 | 120.33997 | 38 ft | 2 kts | 269° |
| 2026-04-24 11:15 | 22.57219 | 120.34012 | 38 ft | 2 kts | 265° |
| 2026-04-24 11:15 | 22.57220 | 120.34026 | 38 ft | 2 kts | 258° |
| 2026-04-24 11:15 | 22.57223 | 120.34037 | 38 ft | 2 kts | 237° |
| 2026-04-24 11:15 | 22.57229 | 120.34045 | 38 ft | 1 kts | 205° |
| 2026-04-24 11:16 | 22.57240 | 120.34049 | 36 ft | 2 kts | 186° |
| 2026-04-24 11:16 | 22.57253 | 120.34050 | 38 ft | 2 kts | 182° |
| 2026-04-24 11:16 | 22.57267 | 120.34050 | 38 ft | 2 kts | 181° |
| 2026-04-24 11:16 | 22.57281 | 120.34050 | 38 ft | 2 kts | 181° |
| 2026-04-24 11:17 | 22.57294 | 120.34051 | 36 ft | 2 kts | 181° |
| 2026-04-24 11:17 | 22.57308 | 120.34051 | 38 ft | 2 kts | 181° |
| 2026-04-24 11:17 | 22.57322 | 120.34051 | 38 ft | 2 kts | 181° |
| 2026-04-24 11:17 | 22.57336 | 120.34052 | 38 ft | 2 kts | 181° |
| 2026-04-24 11:18 | 22.57350 | 120.34052 | 38 ft | 2 kts | 181° |
| 2026-04-24 11:18 | 22.57363 | 120.34052 | 38 ft | 2 kts | 181° |
| 2026-04-24 11:18 | 22.57377 | 120.34053 | 38 ft | 2 kts | 182° |
| 2026-04-24 11:18 | 22.57388 | 120.34055 | 38 ft | 2 kts | 205° |
| 2026-04-24 11:19 | 22.57397 | 120.34061 | 36 ft | 2 kts | 228° |
| 2026-04-24 11:19 | 22.57404 | 120.34071 | 38 ft | 2 kts | 247° |
| 2026-04-24 11:19 | 22.57407 | 120.34083 | 38 ft | 2 kts | 261° |
| 2026-04-24 11:19 | 22.57409 | 120.34096 | 38 ft | 1 kts | 270° |
| 2026-04-24 11:20 | 22.57409 | 120.34086 | 38 ft | 2 kts | 271° |
| 2026-04-24 11:20 | 22.57409 | 120.34071 | 38 ft | 2 kts | 272° |
| 2026-04-24 11:20 | 22.57410 | 120.34056 | 38 ft | 2 kts | 272° |
| 2026-04-24 11:20 | 22.57410 | 120.34041 | 38 ft | 2 kts | 272° |
| 2026-04-24 11:21 | 22.57411 | 120.34029 | 38 ft | 1 kts | 271° |
| 2026-04-24 11:21 | 22.57411 | 120.34019 | 38 ft | 1 kts | 271° |
| 2026-04-24 11:21 | 22.57411 | 120.34012 | 38 ft | 1 kts | 271° |
| 2026-04-24 11:21 | 22.57411 | 120.34006 | 38 ft | 1 kts | 271° |
| 2026-04-24 11:22 | 22.57411 | 120.34001 | 38 ft | 1 kts | 271° |
| 2026-04-24 11:22 | 22.57411 | 120.33995 | 38 ft | 0 kts | 271° |
| 2026-04-24 11:23 | 22.57411 | 120.33994 | 38 ft | 1 kts | 271° |
| 2026-04-24 11:23 | 22.57412 | 120.33973 | 38 ft | 5 kts | 271° |
| 2026-04-24 11:23 | 22.57413 | 120.33926 | 38 ft | 8 kts | 273° |
| 2026-04-24 11:23 | 22.57416 | 120.33855 | 38 ft | 11 kts | 271° |
| 2026-04-24 11:24 | 22.57418 | 120.33763 | 38 ft | 14 kts | 271° |
| 2026-04-24 11:24 | 22.57451 | 120.33664 | 37 ft | 16 kts | 313° |
| 2026-04-24 11:24 | 22.57536 | 120.33579 | 37 ft | 18 kts | 316° |
| 2026-04-24 11:24 | 22.57606 | 120.33508 | 35 ft | 10 kts | 326° |
| 2026-04-24 11:25 | 22.57651 | 120.33503 | 37 ft | 0 kts | 4° |
| 2026-04-24 11:26 | 22.57668 | 120.33505 | 37 ft | 4 kts | 4° |
| 2026-04-24 11:27 | 22.57711 | 120.33508 | 37 ft | 8 kts | 4° |
| 2026-04-24 11:27 | 22.57750 | 120.33543 | 36 ft | 9 kts | 75° |
| 2026-04-24 11:27 | 22.57746 | 120.33615 | 37 ft | 15 kts | 89° |
| 2026-04-24 11:27 | 22.57745 | 120.33914 | 39 ft | 73 kts | 92° |
| 2026-04-24 11:28 | 22.57717 | 120.34690 | 38 ft | 131 kts | 91° |
| 2026-04-24 11:28 | 22.57689 | 120.35845 | 39 ft | 175 kts | 90° |
| 2026-04-24 11:28 | 22.57669 | 120.37132 | 782 ft | 160 kts | 90° |
| 2026-04-24 11:28 | 22.57595 | 120.38354 | 1311 ft | 169 kts | 104° |
| 2026-04-24 11:29 | 22.56960 | 120.39349 | 1886 ft | 172 kts | 146° |
| 2026-04-24 11:29 | 22.55764 | 120.39695 | 2248 ft | 192 kts | 185° |
| 2026-04-24 11:29 | 22.54497 | 120.39109 | 2600 ft | 212 kts | 222° |
| 2026-04-24 11:29 | 22.53611 | 120.37761 | 3042 ft | 231 kts | 244° |
| 2026-04-24 11:30 | 22.52847 | 120.36216 | 3820 ft | 238 kts | 239° |
| 2026-04-24 11:30 | 22.51911 | 120.34722 | 4795 ft | 238 kts | 239° |
| 2026-04-24 11:30 | 22.51066 | 120.33147 | 5511 ft | 252 kts | 242° |
| 2026-04-24 11:30 | 22.50206 | 120.31414 | 6024 ft | 272 kts | 243° |
| 2026-04-24 11:31 | 22.49302 | 120.29580 | 6815 ft | 279 kts | 242° |
| 2026-04-24 11:31 | 22.48381 | 120.27732 | 7714 ft | 281 kts | 242° |
| 2026-04-24 11:31 | 22.47437 | 120.25870 | 8565 ft | 285 kts | 242° |
| 2026-04-24 11:31 | 22.46477 | 120.23985 | 9400 ft | 288 kts | 241° |
| 2026-04-24 11:32 | 22.45504 | 120.22085 | 10235 ft | 291 kts | 241° |
| 2026-04-24 11:32 | 22.44499 | 120.20122 | 10671 ft | 309 kts | 241° |
| 2026-04-24 11:32 | 22.43422 | 120.18019 | 10911 ft | 331 kts | 241° |
| 2026-04-24 11:32 | 22.42290 | 120.15806 | 11449 ft | 341 kts | 241° |
| 2026-04-24 11:33 | 22.41140 | 120.13563 | 12236 ft | 343 kts | 241° |
| 2026-04-24 11:33 | 22.39982 | 120.11305 | 13054 ft | 345 kts | 241° |
| 2026-04-24 11:33 | 22.38814 | 120.09031 | 13763 ft | 349 kts | 241° |
| 2026-04-24 11:33 | 22.37634 | 120.06731 | 14461 ft | 353 kts | 241° |
| 2026-04-24 11:34 | 22.36442 | 120.04409 | 15134 ft | 356 kts | 241° |
| 2026-04-24 11:34 | 22.35236 | 120.02058 | 15783 ft | 360 kts | 241° |
| 2026-04-24 11:34 | 22.34020 | 119.99692 | 16400 ft | 363 kts | 241° |
| 2026-04-24 11:34 | 22.32791 | 119.97297 | 17007 ft | 366 kts | 241° |
| 2026-04-24 11:35 | 22.31553 | 119.94889 | 17594 ft | 370 kts | 241° |
| 2026-04-24 11:35 | 22.30302 | 119.92456 | 18161 ft | 373 kts | 241° |
| 2026-04-24 11:35 | 22.29039 | 119.90004 | 18702 ft | 376 kts | 241° |
| 2026-04-24 11:35 | 22.27764 | 119.87528 | 19267 ft | 379 kts | 241° |
| 2026-04-24 11:36 | 22.26481 | 119.85036 | 19796 ft | 382 kts | 241° |
| 2026-04-24 11:36 | 22.25189 | 119.82528 | 20312 ft | 385 kts | 241° |
| 2026-04-24 11:36 | 22.23883 | 119.79995 | 20795 ft | 388 kts | 241° |
| 2026-04-24 11:36 | 22.22573 | 119.77455 | 21282 ft | 391 kts | 241° |
| 2026-04-24 11:37 | 22.21355 | 119.74823 | 21748 ft | 394 kts | 247° |
| 2026-04-24 11:37 | 22.20438 | 119.72038 | 22208 ft | 396 kts | 254° |
| 2026-04-24 11:37 | 22.19790 | 119.69137 | 22673 ft | 399 kts | 257° |
| 2026-04-24 11:37 | 22.19168 | 119.66214 | 23093 ft | 402 kts | 256° |
| 2026-04-24 11:38 | 22.18535 | 119.63276 | 23514 ft | 405 kts | 256° |
| 2026-04-24 11:38 | 22.17895 | 119.60322 | 23937 ft | 407 kts | 256° |
| 2026-04-24 11:38 | 22.17248 | 119.57343 | 24351 ft | 410 kts | 256° |
| 2026-04-24 11:38 | 22.16602 | 119.54349 | 24751 ft | 412 kts | 257° |
| 2026-04-24 11:39 | 22.16158 | 119.51293 | 25136 ft | 414 kts | 264° |
| 2026-04-24 11:39 | 22.16025 | 119.48191 | 25529 ft | 417 kts | 268° |
| 2026-04-24 11:39 | 22.15952 | 119.45057 | 25898 ft | 419 kts | 268° |
| 2026-04-24 11:39 | 22.15871 | 119.41925 | 26256 ft | 421 kts | 267° |
| 2026-04-24 11:40 | 22.15786 | 119.38763 | 26617 ft | 422 kts | 267° |
| 2026-04-24 11:40 | 22.15698 | 119.35601 | 26968 ft | 424 kts | 267° |
| 2026-04-24 11:40 | 22.15610 | 119.32416 | 27291 ft | 426 kts | 267° |
| 2026-04-24 11:40 | 22.15522 | 119.29222 | 27616 ft | 428 kts | 267° |
| 2026-04-24 11:41 | 22.15434 | 119.26020 | 27939 ft | 430 kts | 267° |
| 2026-04-24 11:41 | 22.15344 | 119.22800 | 28243 ft | 431 kts | 267° |
| 2026-04-24 11:41 | 22.15252 | 119.19559 | 28552 ft | 433 kts | 267° |
| 2026-04-24 11:41 | 22.15160 | 119.16318 | 28840 ft | 434 kts | 267° |
| 2026-04-24 11:42 | 22.15067 | 119.13063 | 29120 ft | 436 kts | 267° |
| 2026-04-24 11:42 | 22.15005 | 119.09789 | 29407 ft | 438 kts | 270° |
| 2026-04-24 11:42 | 22.15225 | 119.06512 | 29698 ft | 441 kts | 276° |
| 2026-04-24 11:42 | 22.15635 | 119.03233 | 29943 ft | 443 kts | 276° |
| 2026-04-24 11:43 | 22.16039 | 118.99943 | 30230 ft | 445 kts | 276° |
| 2026-04-24 11:43 | 22.16440 | 118.96644 | 30515 ft | 446 kts | 276° |
| 2026-04-24 11:43 | 22.16838 | 118.93321 | 30804 ft | 447 kts | 276° |
| 2026-04-24 11:43 | 22.17234 | 118.90000 | 31110 ft | 448 kts | 276° |
| 2026-04-24 11:44 | 22.17629 | 118.86677 | 31464 ft | 448 kts | 276° |
| 2026-04-24 11:44 | 22.18024 | 118.83357 | 31871 ft | 446 kts | 276° |
| 2026-04-24 11:44 | 22.18417 | 118.80049 | 32251 ft | 444 kts | 276° |
| 2026-04-24 11:44 | 22.18807 | 118.76761 | 32608 ft | 443 kts | 276° |
| 2026-04-24 11:45 | 22.19196 | 118.73477 | 32983 ft | 441 kts | 276° |
| 2026-04-24 11:45 | 22.19583 | 118.70202 | 33336 ft | 440 kts | 276° |
| 2026-04-24 11:45 | 22.19967 | 118.66945 | 33684 ft | 438 kts | 276° |
| 2026-04-24 11:45 | 22.20351 | 118.63688 | 33857 ft | 437 kts | 276° |
| 2026-04-24 11:46 | 22.20731 | 118.60456 | 33959 ft | 435 kts | 276° |
| 2026-04-24 11:46 | 22.21111 | 118.57224 | 33999 ft | 434 kts | 276° |
| 2026-04-24 11:46 | 22.21868 | 118.50767 | 34011 ft | 435 kts | 276° |
| 2026-04-24 11:47 | 22.22623 | 118.44300 | 34016 ft | 435 kts | 276° |
| 2026-04-24 11:47 | 22.23376 | 118.37836 | 34024 ft | 435 kts | 276° |
| 2026-04-24 11:48 | 22.24126 | 118.31373 | 34023 ft | 435 kts | 276° |
| 2026-04-24 11:48 | 22.24873 | 118.24908 | 34022 ft | 434 kts | 276° |
| 2026-04-24 11:49 | 22.25618 | 118.18453 | 34016 ft | 435 kts | 276° |
| 2026-04-24 11:49 | 22.26360 | 118.11991 | 34024 ft | 435 kts | 276° |
| 2026-04-24 11:50 | 22.27071 | 118.05521 | 34026 ft | 435 kts | 275° |
| 2026-04-24 11:50 | 22.27778 | 117.99047 | 34022 ft | 435 kts | 276° |
| 2026-04-24 11:51 | 22.28519 | 117.92570 | 34026 ft | 435 kts | 276° |
| 2026-04-24 11:51 | 22.29263 | 117.86098 | 34029 ft | 435 kts | 276° |
| 2026-04-24 11:52 | 22.30001 | 117.79617 | 34030 ft | 436 kts | 276° |
| 2026-04-24 11:52 | 22.30735 | 117.73144 | 34036 ft | 436 kts | 276° |
| 2026-04-24 11:53 | 22.31466 | 117.66663 | 34044 ft | 436 kts | 276° |
| 2026-04-24 11:53 | 22.32195 | 117.60175 | 34047 ft | 436 kts | 275° |
| 2026-04-24 11:54 | 22.32922 | 117.53692 | 34036 ft | 436 kts | 275° |
| 2026-04-24 11:54 | 22.33299 | 117.47194 | 34041 ft | 434 kts | 268° |
| 2026-04-24 11:55 | 22.33165 | 117.40686 | 34032 ft | 434 kts | 268° |
| 2026-04-24 11:55 | 22.33052 | 117.34178 | 34047 ft | 434 kts | 268° |
| 2026-04-24 11:56 | 22.32937 | 117.27668 | 34044 ft | 434 kts | 268° |
| 2026-04-24 11:56 | 22.32816 | 117.21167 | 34047 ft | 434 kts | 268° |
| 2026-04-24 11:57 | 22.32692 | 117.14667 | 34047 ft | 434 kts | 268° |
| 2026-04-24 11:57 | 22.32566 | 117.08167 | 34050 ft | 434 kts | 268° |
| 2026-04-24 11:58 | 22.32437 | 117.01675 | 34050 ft | 433 kts | 268° |
| 2026-04-24 11:58 | 22.32305 | 116.95187 | 34047 ft | 433 kts | 268° |
| 2026-04-24 11:59 | 22.32172 | 116.88697 | 34048 ft | 433 kts | 268° |
| 2026-04-24 11:59 | 22.32035 | 116.82213 | 34045 ft | 433 kts | 268° |
| 2026-04-24 12:00 | 22.31896 | 116.75735 | 34049 ft | 432 kts | 268° |
| 2026-04-24 12:00 | 22.31756 | 116.69261 | 34048 ft | 432 kts | 268° |
| 2026-04-24 12:01 | 22.31611 | 116.62795 | 34042 ft | 432 kts | 268° |
| 2026-04-24 12:01 | 22.31464 | 116.56328 | 34030 ft | 432 kts | 268° |
| 2026-04-24 12:02 | 22.31316 | 116.49856 | 34029 ft | 432 kts | 268° |
| 2026-04-24 12:02 | 22.31163 | 116.43378 | 34034 ft | 433 kts | 268° |
| 2026-04-24 12:03 | 22.31008 | 116.36891 | 34036 ft | 434 kts | 268° |
| 2026-04-24 12:03 | 22.30850 | 116.30385 | 34038 ft | 434 kts | 268° |
| 2026-04-24 12:04 | 22.30690 | 116.23872 | 34046 ft | 435 kts | 268° |
| 2026-04-24 12:04 | 22.30526 | 116.17344 | 34049 ft | 436 kts | 268° |
| 2026-04-24 12:05 | 22.30360 | 116.10810 | 34051 ft | 437 kts | 268° |
| 2026-04-24 12:05 | 22.30190 | 116.04255 | 34050 ft | 437 kts | 268° |
| 2026-04-24 12:06 | 22.30020 | 115.97707 | 34046 ft | 438 kts | 268° |
| 2026-04-24 12:06 | 22.29846 | 115.91151 | 34052 ft | 438 kts | 268° |
| 2026-04-24 12:07 | 22.29670 | 115.84595 | 34051 ft | 438 kts | 268° |
| 2026-04-24 12:07 | 22.29493 | 115.78043 | 34052 ft | 437 kts | 268° |
| 2026-04-24 12:08 | 22.29319 | 115.71488 | 34051 ft | 437 kts | 268° |
| 2026-04-24 12:08 | 22.29143 | 115.64947 | 34049 ft | 437 kts | 268° |
| 2026-04-24 12:09 | 22.28966 | 115.58412 | 34047 ft | 436 kts | 268° |
| 2026-04-24 12:09 | 22.28786 | 115.51897 | 34033 ft | 435 kts | 268° |
| 2026-04-24 12:10 | 22.28603 | 115.45387 | 34043 ft | 434 kts | 268° |
| 2026-04-24 12:11 | 22.28324 | 115.35643 | 33195 ft | 436 kts | 268° |
| 2026-04-24 12:11 | 22.28229 | 115.32355 | 32237 ft | 442 kts | 268° |
| 2026-04-24 12:11 | 22.28129 | 115.29017 | 31067 ft | 451 kts | 267° |
| 2026-04-24 12:11 | 22.28025 | 115.25635 | 30234 ft | 451 kts | 267° |
| 2026-04-24 12:12 | 22.27922 | 115.22283 | 29693 ft | 444 kts | 267° |
| 2026-04-24 12:12 | 22.27820 | 115.18993 | 29316 ft | 434 kts | 267° |
| 2026-04-24 12:12 | 22.27720 | 115.15756 | 28718 ft | 430 kts | 267° |
| 2026-04-24 12:12 | 22.27620 | 115.12550 | 28121 ft | 426 kts | 267° |
| 2026-04-24 12:13 | 22.27520 | 115.09374 | 27529 ft | 422 kts | 266° |
| 2026-04-24 12:13 | 22.27420 | 115.06233 | 26943 ft | 418 kts | 266° |
| 2026-04-24 12:13 | 22.27321 | 115.03116 | 26362 ft | 414 kts | 266° |
| 2026-04-24 12:13 | 22.27222 | 115.00025 | 25785 ft | 411 kts | 266° |
| 2026-04-24 12:14 | 22.27123 | 114.96961 | 25214 ft | 407 kts | 266° |
| 2026-04-24 12:14 | 22.27024 | 114.93928 | 24641 ft | 404 kts | 266° |
| 2026-04-24 12:14 | 22.26786 | 114.90939 | 24080 ft | 399 kts | 260° |
| 2026-04-24 12:14 | 22.26368 | 114.88002 | 23511 ft | 395 kts | 260° |
| 2026-04-24 12:15 | 22.26069 | 114.85868 | 23102 ft | 393 kts | 260° |
| 2026-04-24 12:15 | 22.25667 | 114.82975 | 22539 ft | 390 kts | 260° |
| 2026-04-24 12:15 | 22.25271 | 114.80099 | 21992 ft | 387 kts | 261° |
| 2026-04-24 12:15 | 22.24875 | 114.77239 | 21422 ft | 384 kts | 261° |
| 2026-04-24 12:16 | 22.24483 | 114.74416 | 20881 ft | 380 kts | 261° |
| 2026-04-24 12:16 | 22.24092 | 114.71605 | 20326 ft | 377 kts | 261° |
| 2026-04-24 12:16 | 22.23808 | 114.69566 | 19927 ft | 375 kts | 261° |
| 2026-04-24 12:16 | 22.23423 | 114.66805 | 19377 ft | 372 kts | 261° |
| 2026-04-24 12:17 | 22.23039 | 114.64064 | 18839 ft | 369 kts | 261° |
| 2026-04-24 12:17 | 22.22660 | 114.61352 | 18300 ft | 366 kts | 261° |
| 2026-04-24 12:17 | 22.22281 | 114.58649 | 17761 ft | 363 kts | 261° |
| 2026-04-24 12:17 | 22.21905 | 114.55970 | 17216 ft | 361 kts | 261° |
| 2026-04-24 12:18 | 22.21531 | 114.53306 | 16693 ft | 358 kts | 261° |
| 2026-04-24 12:18 | 22.21160 | 114.50664 | 16159 ft | 356 kts | 261° |
| 2026-04-24 12:18 | 22.20790 | 114.48040 | 15638 ft | 353 kts | 261° |
| 2026-04-24 12:18 | 22.20422 | 114.45431 | 15112 ft | 351 kts | 261° |
| 2026-04-24 12:19 | 22.20056 | 114.42842 | 14595 ft | 348 kts | 261° |
| 2026-04-24 12:19 | 22.19697 | 114.40305 | 14075 ft | 346 kts | 261° |
| 2026-04-24 12:19 | 22.19337 | 114.37752 | 13586 ft | 344 kts | 261° |
| 2026-04-24 12:19 | 22.18979 | 114.35220 | 13064 ft | 341 kts | 261° |
| 2026-04-24 12:20 | 22.18622 | 114.32699 | 12560 ft | 339 kts | 261° |
| 2026-04-24 12:20 | 22.18267 | 114.30201 | 12055 ft | 337 kts | 261° |
| 2026-04-24 12:20 | 22.17915 | 114.27721 | 11550 ft | 334 kts | 261° |
| 2026-04-24 12:20 | 22.17565 | 114.25256 | 11047 ft | 332 kts | 261° |
| 2026-04-24 12:21 | 22.17216 | 114.22803 | 10543 ft | 330 kts | 261° |
| 2026-04-24 12:21 | 22.16875 | 114.20403 | 10325 ft | 319 kts | 261° |
| 2026-04-24 12:21 | 22.16546 | 114.18083 | 10193 ft | 306 kts | 261° |
| 2026-04-24 12:21 | 22.16229 | 114.15865 | 10066 ft | 294 kts | 261° |
| 2026-04-24 12:22 | 22.15921 | 114.13717 | 9757 ft | 288 kts | 261° |
| 2026-04-24 12:22 | 22.15621 | 114.11618 | 9481 ft | 281 kts | 261° |
| 2026-04-24 12:22 | 22.15324 | 114.09549 | 9253 ft | 281 kts | 261° |
| 2026-04-24 12:22 | 22.15023 | 114.07444 | 8884 ft | 286 kts | 261° |
| 2026-04-24 12:23 | 22.14719 | 114.05331 | 8504 ft | 285 kts | 261° |
| 2026-04-24 12:23 | 22.14418 | 114.03232 | 8121 ft | 283 kts | 261° |
| 2026-04-24 12:23 | 22.14117 | 114.01145 | 7738 ft | 281 kts | 261° |
| 2026-04-24 12:23 | 22.13820 | 113.99075 | 7351 ft | 279 kts | 261° |
| 2026-04-24 12:24 | 22.13524 | 113.97025 | 6975 ft | 276 kts | 261° |
| 2026-04-24 12:24 | 22.13231 | 113.94987 | 6600 ft | 274 kts | 261° |
| 2026-04-24 12:24 | 22.12940 | 113.92969 | 6208 ft | 273 kts | 260° |
| 2026-04-24 12:24 | 22.12649 | 113.90956 | 5835 ft | 271 kts | 260° |
| 2026-04-24 12:25 | 22.12361 | 113.88963 | 5454 ft | 269 kts | 260° |
| 2026-04-24 12:25 | 22.12074 | 113.86986 | 5200 ft | 263 kts | 261° |
| 2026-04-24 12:25 | 22.11790 | 113.85025 | 5106 ft | 267 kts | 261° |
| 2026-04-24 12:25 | 22.11508 | 113.83078 | 4980 ft | 259 kts | 261° |
| 2026-04-24 12:26 | 22.11229 | 113.81161 | 4668 ft | 264 kts | 261° |
| 2026-04-24 12:26 | 22.11126 | 113.79164 | 4331 ft | 270 kts | 279° |
| 2026-04-24 12:26 | 22.11826 | 113.77321 | 4016 ft | 267 kts | 307° |
| 2026-04-24 12:26 | 22.13224 | 113.76055 | 3699 ft | 264 kts | 333° |
| 2026-04-24 12:27 | 22.14891 | 113.75256 | 3372 ft | 261 kts | 338° |
| 2026-04-24 12:27 | 22.16560 | 113.74524 | 3047 ft | 258 kts | 338° |
| 2026-04-24 12:27 | 22.18210 | 113.73779 | 2723 ft | 256 kts | 336° |
| 2026-04-24 12:27 | 22.19835 | 113.73012 | 2401 ft | 255 kts | 335° |
| 2026-04-24 12:28 | 22.21433 | 113.72234 | 2148 ft | 250 kts | 335° |
| 2026-04-24 12:28 | 22.23065 | 113.71796 | 2046 ft | 238 kts | 2° |
| 2026-04-24 12:28 | 22.24581 | 113.72296 | 1996 ft | 224 kts | 34° |
| 2026-04-24 12:28 | 22.25718 | 113.73344 | 1995 ft | 209 kts | 41° |
| 2026-04-24 12:29 | 22.26765 | 113.74349 | 1999 ft | 197 kts | 42° |
| 2026-04-24 12:29 | 22.27681 | 113.75368 | 1992 ft | 182 kts | 55° |
| 2026-04-24 12:29 | 22.28300 | 113.76512 | 2004 ft | 178 kts | 65° |
| 2026-04-24 12:29 | 22.28774 | 113.77742 | 1998 ft | 177 kts | 70° |
| 2026-04-24 12:30 | 22.29191 | 113.78997 | 1812 ft | 177 kts | 72° |
| 2026-04-24 12:30 | 22.29593 | 113.80248 | 1577 ft | 178 kts | 71° |
| 2026-04-24 12:30 | 22.29988 | 113.81479 | 1342 ft | 168 kts | 71° |
| 2026-04-24 12:30 | 22.30353 | 113.82618 | 1114 ft | 155 kts | 69° |
| 2026-04-24 12:31 | 22.30698 | 113.83685 | 926 ft | 153 kts | 70° |
| 2026-04-24 12:31 | 22.31045 | 113.84773 | 717 ft | 150 kts | 70° |
| 2026-04-24 12:31 | 22.31370 | 113.85833 | 524 ft | 151 kts | 69° |
| 2026-04-24 12:31 | 22.31725 | 113.86886 | 326 ft | 148 kts | 69° |
| 2026-04-24 12:32 | 22.32058 | 113.87937 | 145 ft | 148 kts | 70° |
| 2026-04-24 12:32 | 22.32392 | 113.88971 | 32 ft | 139 kts | 70° |
| 2026-04-24 12:32 | 22.32649 | 113.89756 | 32 ft | 82 kts | 71° |
| 2026-04-24 12:32 | 22.32795 | 113.90204 | 32 ft | 55 kts | 73° |
| 2026-04-24 12:33 | 22.32790 | 113.90590 | 32 ft | 49 kts | 100° |
| 2026-04-24 12:33 | 22.32811 | 113.90828 | 32 ft | 21 kts | 70° |
| 2026-04-24 12:33 | 22.32862 | 113.90970 | 30 ft | 20 kts | 69° |
| 2026-04-24 12:33 | 22.32909 | 113.91103 | 32 ft | 18 kts | 69° |
| 2026-04-24 12:34 | 22.32947 | 113.91229 | 32 ft | 17 kts | 73° |
| 2026-04-24 12:34 | 22.32982 | 113.91349 | 32 ft | 16 kts | 72° |
| 2026-04-24 12:34 | 22.33016 | 113.91462 | 32 ft | 15 kts | 68° |
| 2026-04-24 12:34 | 22.33052 | 113.91568 | 32 ft | 17 kts | 73° |
| 2026-04-24 12:35 | 22.33100 | 113.91724 | 30 ft | 25 kts | 70° |
| 2026-04-24 12:35 | 22.33160 | 113.91902 | 32 ft | 25 kts | 69° |
| 2026-04-24 12:35 | 22.33211 | 113.92071 | 32 ft | 19 kts | 84° |
| 2026-04-24 12:35 | 22.33151 | 113.92138 | 32 ft | 13 kts | 164° |
| 2026-04-24 12:36 | 22.33044 | 113.92178 | 31 ft | 21 kts | 162° |
| 2026-04-24 12:36 | 22.32904 | 113.92231 | 32 ft | 22 kts | 159° |
| 2026-04-24 12:36 | 22.32765 | 113.92284 | 31 ft | 21 kts | 162° |
| 2026-04-24 12:36 | 22.32632 | 113.92332 | 32 ft | 20 kts | 161° |
| 2026-04-24 12:37 | 22.32506 | 113.92378 | 32 ft | 19 kts | 161° |
| 2026-04-24 12:37 | 22.32380 | 113.92424 | 32 ft | 21 kts | 161° |
| 2026-04-24 12:37 | 22.32236 | 113.92478 | 32 ft | 22 kts | 160° |
| 2026-04-24 12:37 | 22.32171 | 113.92510 | 32 ft | 4 kts | 136° |
| 2026-04-24 12:38 | 22.32158 | 113.92538 | 32 ft | 5 kts | 103° |
| 2026-04-24 12:38 | 22.32169 | 113.92586 | 32 ft | 8 kts | 69° |
| 2026-04-24 12:38 | 22.32189 | 113.92659 | 32 ft | 12 kts | 86° |
| 2026-04-24 12:39 | 22.31944 | 113.92780 | 33 ft | 12 kts | 159° |